CheckWX is a tool to help pilots better visualize weather data.  It is not intended as a substitute for an official pre-flight weather briefing.

12:03:06 UTC

EGGW TAF
London Luton Airport
London, United Kingdom
TAF EGGW 201053Z 2012/2112 28010KT 9999 SCT030 BECMG 2100/2103 21005KT PROB30 2103/2107 8000

Aug-20@
12:00 UTC

Aug-20 @ 12:00 UTC

Aug-21@
00:00 UTC

Aug-21 @ 00:00 UTC

TAF EGGW 201053Z 2012/2112 28010KT 9999 SCT030
Wind
  • 280° at 10 KTS
Cloud Levels
  • Scattered at 3,000' AGL

Aug-21@
00:00 UTC

Aug-21 @ 00:00 UTC

Aug-21@
12:00 UTC

Aug-21 @ 12:00 UTC

BECMG 2100/2103 21005KT

Becoming

Becoming Conditions expected by Wed, Aug 21, 2019 @ 03:00 UTC

Wind
  • 210° at 5 KTS
Cloud Levels
  • Scattered at 3,000' AGL

Aug-21@
03:00 UTC

Aug-21 @ 03:00 UTC

Aug-21@
07:00 UTC

Aug-21 @ 07:00 UTC

PROB30 2103/2107 8000

Probable - 30% Likelihood

Probable - 30% Likelihood during this time.